Time;durP1;ratioP1;P1;durP2;ratioP2;P2;SDS_P1;SDS_P2;PMS_P1;PMS_P2;Temp;Humidity;BMP_temperature;BMP_pressure;BME280_temperature;BME280_humidity;BME280_pressure;Samples;Min_cycle;Max_cycle;Signal;HPM_P1;HPM_P2
2021/10/01 00:02:14;;;;;;;2.05;1.00;;;8.60;77.20;;;;;;5072628;28;20016;-74
2021/10/01 00:04:40;;;;;;;6.57;1.33;;;8.60;77.00;;;;;;5072500;28;20104;-75
2021/10/01 00:07:06;;;;;;;2.60;1.08;;;8.50;77.30;;;;;;5071333;28;20111;-75
2021/10/01 00:09:31;;;;;;;3.45;1.17;;;8.60;77.30;;;;;;5072586;28;20048;-74
2021/10/01 00:11:57;;;;;;;4.43;1.33;;;8.60;77.10;;;;;;5072626;28;20500;-74
2021/10/01 00:14:25;;;;;;;2.92;1.33;;;8.70;77.00;;;;;;5076503;28;20028;-74
2021/10/01 00:16:52;;;;;;;7.43;1.02;;;8.70;76.80;;;;;;5076446;28;20025;-74
2021/10/01 00:19:18;;;;;;;4.65;1.45;;;8.70;76.70;;;;;;5076514;28;20020;-74
2021/10/01 00:21:45;;;;;;;10.98;1.60;;;8.70;77.00;;;;;;5076198;28;20361;-75
2021/10/01 00:24:11;;;;;;;5.03;1.23;;;8.60;76.80;;;;;;5076377;28;20451;-75
2021/10/01 00:26:37;;;;;;;4.53;1.48;;;8.70;77.10;;;;;;5076219;28;20017;-73
2021/10/01 00:29:04;;;;;;;3.67;1.27;;;8.60;77.20;;;;;;5076241;28;20534;-74
2021/10/01 00:31:30;;;;;;;4.93;1.70;;;8.60;77.20;;;;;;5076209;28;20070;-74
2021/10/01 00:33:57;;;;;;;2.72;1.17;;;8.60;77.20;;;;;;5076001;28;20040;-74
2021/10/01 00:36:22;;;;;;;3.83;1.85;;;8.60;77.20;;;;;;5076022;28;20048;-74
2021/10/01 00:38:48;;;;;;;5.03;1.60;;;8.60;77.20;;;;;;5075940;28;20028;-72
2021/10/01 00:41:14;;;;;;;4.57;1.15;;;8.60;77.50;;;;;;5076088;28;20099;-74
2021/10/01 00:43:39;;;;;;;8.70;1.65;;;8.50;77.80;;;;;;5075874;28;20488;-72
2021/10/01 00:46:05;;;;;;;4.25;1.38;;;8.40;79.00;;;;;;5076005;28;20024;-73
2021/10/01 00:48:31;;;;;;;3.00;1.20;;;8.40;78.70;;;;;;5075166;28;20512;-74
2021/10/01 00:50:57;;;;;;;4.18;1.42;;;8.30;78.90;;;;;;5076527;28;20025;-73
2021/10/01 00:53:23;;;;;;;5.32;1.38;;;8.40;78.80;;;;;;5075907;28;20099;-75
2021/10/01 00:55:48;;;;;;;4.70;1.77;;;8.30;79.00;;;;;;5075999;28;20032;-75
2021/10/01 00:58:14;;;;;;;3.92;1.40;;;8.30;78.90;;;;;;5075906;28;20028;-75
2021/10/01 01:00:55;;;;;;;3.47;1.58;;;8.30;79.00;;;;;;5075826;28;20023;-75
2021/10/01 01:03:21;;;;;;;3.03;1.48;;;8.40;79.70;;;;;;5075723;28;20028;-74
2021/10/01 01:06:08;;;;;;;6.22;1.38;;;8.30;79.20;;;;;;5075766;28;20032;-74
2021/10/01 01:08:54;;;;;;;4.15;1.30;;;8.30;79.00;;;;;;5075444;28;20024;-75
2021/10/01 01:11:45;;;;;;;2.97;1.23;;;8.40;79.00;;;;;;5075947;28;20071;-75
2021/10/01 01:14:15;;;;;;;3.88;1.52;;;8.30;79.20;;;;;;5075638;28;20473;-75
2021/10/01 01:16:44;;;;;;;3.92;1.50;;;8.30;79.20;;;;;;5075682;28;20036;-75
2021/10/01 01:19:16;;;;;;;6.03;1.70;;;8.30;79.10;;;;;;5075599;28;20032;-75
2021/10/01 01:21:57;;;;;;;3.88;1.40;;;8.30;79.10;;;;;;5075402;28;20476;-75
2021/10/01 01:25:05;;;;;;;5.70;1.70;;;8.30;79.10;;;;;;5084823;28;20036;-75
2021/10/01 01:28:00;;;;;;;4.55;1.42;;;8.30;79.20;;;;;;5095204;28;20028;-75
2021/10/01 01:30:35;;;;;;;3.15;1.70;;;8.30;79.30;;;;;;5075757;28;20020;-74
2021/10/01 01:33:02;;;;;;;5.18;1.67;;;8.20;79.00;;;;;;5075513;28;20453;-76
2021/10/01 01:35:36;;;;;;;3.15;1.13;;;8.20;79.20;;;;;;5075211;28;20037;-75
2021/10/01 01:38:10;;;;;;;4.00;1.35;;;8.20;79.20;;;;;;5075114;28;20028;-75
2021/10/01 01:40:38;;;;;;;5.82;1.38;;;8.30;79.20;;;;;;5074999;28;20048;-75
2021/10/01 01:43:08;;;;;;;6.63;1.10;;;8.30;79.00;;;;;;5074869;28;20428;-75
2021/10/01 01:45:36;;;;;;;8.25;1.50;;;8.30;79.00;;;;;;5075001;28;20031;-74
2021/10/01 01:48:05;;;;;;;5.25;1.10;;;8.30;78.80;;;;;;5075063;28;20238;-75
2021/10/01 01:50:31;;;;;;;4.72;1.20;;;8.30;78.80;;;;;;5074655;28;20048;-75
2021/10/01 01:52:58;;;;;;;3.70;1.13;;;8.40;78.70;;;;;;5073369;28;20044;-74
2021/10/01 01:55:24;;;;;;;2.85;1.33;;;8.40;78.60;;;;;;5074808;28;20503;-75
2021/10/01 01:57:52;;;;;;;4.85;1.15;;;8.30;78.50;;;;;;5074657;28;20045;-75
2021/10/01 02:00:18;;;;;;;6.80;1.65;;;8.30;78.70;;;;;;5074586;28;20020;-75
2021/10/01 02:02:47;;;;;;;8.20;1.15;;;8.30;78.60;;;;;;5074539;28;20584;-75
2021/10/01 02:05:13;;;;;;;3.05;1.10;;;8.30;78.70;;;;;;5073186;28;20060;-75
2021/10/01 02:07:41;;;;;;;23.40;1.75;;;8.20;78.70;;;;;;5074269;28;20094;-75
2021/10/01 02:10:08;;;;;;;1.55;0.82;;;8.20;78.80;;;;;;5074397;28;20055;-75
2021/10/01 02:12:34;;;;;;;4.05;0.95;;;8.20;78.80;;;;;;5073975;28;20039;-76
2021/10/01 02:15:01;;;;;;;2.67;1.00;;;8.20;78.70;;;;;;5074277;28;20024;-75
2021/10/01 02:17:29;;;;;;;3.03;1.10;;;8.30;78.90;;;;;;5074099;28;20034;-75
2021/10/01 02:19:56;;;;;;;3.67;1.05;;;8.20;78.60;;;;;;5074208;28;20050;-75
2021/10/01 02:22:24;;;;;;;3.90;1.10;;;8.30;78.70;;;;;;5072884;28;20024;-75
2021/10/01 02:24:50;;;;;;;3.35;1.10;;;8.30;78.60;;;;;;5073954;28;20016;-75
2021/10/01 02:27:34;;;;;;;3.50;1.02;;;8.30;78.60;;;;;;5074114;28;20035;-75
2021/10/01 02:30:10;;;;;;;3.10;1.00;;;8.30;78.70;;;;;;5073946;28;20028;-75
2021/10/01 02:32:45;;;;;;;2.33;0.80;;;8.30;78.70;;;;;;5073910;28;20062;-75
2021/10/01 02:35:11;;;;;;;2.65;0.77;;;8.20;78.70;;;;;;5073485;28;20108;-75
2021/10/01 02:37:38;;;;;;;2.63;0.98;;;8.20;78.60;;;;;;5074133;28;20116;-75
2021/10/01 02:40:07;;;;;;;3.72;0.95;;;8.20;78.50;;;;;;5078509;28;20024;-74
2021/10/01 02:42:33;;;;;;;4.38;1.30;;;8.20;78.70;;;;;;5074143;28;20108;-74
2021/10/01 02:44:59;;;;;;;3.72;1.20;;;8.20;78.80;;;;;;5074298;28;20051;-75
2021/10/01 02:47:29;;;;;;;4.57;1.20;;;8.10;78.90;;;;;;5082386;28;20027;-75
2021/10/01 02:49:55;;;;;;;4.63;1.20;;;8.10;79.10;;;;;;5073302;28;20029;-73
2021/10/01 02:52:28;;;;;;;1.85;0.93;;;8.10;79.10;;;;;;5073090;28;20045;-73
2021/10/01 02:55:12;;;;;;;3.22;1.02;;;8.10;79.30;;;;;;5073452;28;20473;-73
2021/10/01 02:57:46;;;;;;;2.70;0.95;;;8.10;79.20;;;;;;5073350;28;20068;-73
2021/10/01 03:00:12;;;;;;;2.50;1.13;;;8.00;79.20;;;;;;5073449;28;20021;-73
2021/10/01 03:02:41;;;;;;;2.58;1.08;;;8.00;79.20;;;;;;5073282;28;20051;-73
2021/10/01 03:05:07;;;;;;;4.97;1.30;;;8.00;79.20;;;;;;5073325;28;20024;-74
2021/10/01 03:07:35;;;;;;;2.40;1.00;;;8.00;79.40;;;;;;5071943;28;20025;-73
2021/10/01 03:10:04;;;;;;;6.60;0.90;;;8.10;79.50;;;;;;5073258;28;20044;-73
2021/10/01 03:12:31;;;;;;;3.70;1.00;;;8.10;79.20;;;;;;5072969;28;20039;-73
2021/10/01 03:14:57;;;;;;;5.65;1.20;;;8.20;79.00;;;;;;5073231;28;20046;-73
2021/10/01 03:17:24;;;;;;;3.40;0.90;;;8.20;78.80;;;;;;5073187;28;20070;-72
2021/10/01 03:19:51;;;;;;;1.83;1.00;;;8.20;78.40;;;;;;5073017;28;20087;-73
2021/10/01 03:22:17;;;;;;;4.93;1.40;;;8.10;78.60;;;;;;5073049;28;20480;-74
2021/10/01 03:24:44;;;;;;;4.65;1.10;;;8.00;78.80;;;;;;5072900;28;20028;-73
2021/10/01 03:27:09;;;;;;;2.75;1.20;;;8.00;79.20;;;;;;5073059;28;20397;-73
2021/10/01 03:29:36;;;;;;;4.93;1.30;;;7.90;79.50;;;;;;5072895;28;20021;-72
2021/10/01 03:32:03;;;;;;;2.10;1.20;;;7.90;79.80;;;;;;5072910;28;20024;-73
2021/10/01 03:34:30;;;;;;;4.78;0.90;;;7.80;80.00;;;;;;5072905;28;20045;-73
2021/10/01 03:36:55;;;;;;;6.82;1.25;;;7.80;80.30;;;;;;5072776;28;20079;-72
2021/10/01 03:39:22;;;;;;;8.48;1.52;;;7.70;80.40;;;;;;5072827;28;20048;-72
2021/10/01 03:41:50;;;;;;;4.32;1.50;;;7.70;80.60;;;;;;5072779;28;20035;-73
2021/10/01 03:44:15;;;;;;;3.10;1.10;;;7.60;80.70;;;;;;5072807;28;20522;-72
2021/10/01 03:46:41;;;;;;;3.60;1.30;;;7.60;80.80;;;;;;5072817;28;20108;-72
2021/10/01 03:49:07;;;;;;;3.85;0.90;;;7.70;80.60;;;;;;5076151;28;20024;-73
2021/10/01 03:51:32;;;;;;;2.30;1.20;;;7.70;80.70;;;;;;5077072;28;20109;-73
2021/10/01 03:53:59;;;;;;;2.78;1.20;;;7.60;80.50;;;;;;5076767;28;20044;-73
2021/10/01 03:56:25;;;;;;;8.43;1.30;;;7.60;80.90;;;;;;5076698;28;20029;-72
2021/10/01 03:58:51;;;;;;;4.65;1.33;;;7.60;80.80;;;;;;5076806;28;20024;-72
2021/10/01 04:01:17;;;;;;;3.53;1.10;;;7.70;80.70;;;;;;5076692;28;20040;-73
2021/10/01 04:03:42;;;;;;;5.82;1.38;;;7.60;80.80;;;;;;5076695;28;20027;-73
2021/10/01 04:06:08;;;;;;;5.22;1.23;;;7.60;80.70;;;;;;5076703;28;20032;-73
2021/10/01 04:08:34;;;;;;;4.13;1.20;;;7.70;80.70;;;;;;5076568;28;20326;-73
2021/10/01 04:11:00;;;;;;;4.90;1.80;;;7.60;80.60;;;;;;5076572;28;20036;-72
2021/10/01 04:13:26;;;;;;;7.07;1.58;;;7.50;81.10;;;;;;5076432;28;20047;-71
2021/10/01 04:15:52;;;;;;;8.77;1.50;;;7.50;81.30;;;;;;5076346;28;20028;-72
2021/10/01 04:18:17;;;;;;;6.25;1.27;;;7.50;81.40;;;;;;5076396;28;20028;-72
2021/10/01 04:20:45;;;;;;;4.80;1.65;;;7.50;81.20;;;;;;5076285;28;20025;-72
2021/10/01 04:23:14;;;;;;;4.57;1.58;;;7.60;81.20;;;;;;5076351;28;20380;-72
2021/10/01 04:25:40;;;;;;;3.90;1.20;;;7.60;80.80;;;;;;5076261;28;20024;-72
2021/10/01 04:28:09;;;;;;;3.35;1.15;;;7.60;80.80;;;;;;5076312;28;20492;-72
2021/10/01 04:30:41;;;;;;;5.32;1.27;;;7.60;80.70;;;;;;5076088;28;20062;-71
2021/10/01 04:33:24;;;;;;;4.70;1.23;;;7.60;80.70;;;;;;5076167;28;20484;-72
2021/10/01 04:35:51;;;;;;;3.78;1.23;;;7.60;80.90;;;;;;5074689;28;20032;-73
2021/10/01 04:38:18;;;;;;;4.28;1.75;;;7.60;80.70;;;;;;5076072;28;20461;-73
2021/10/01 04:40:43;;;;;;;8.35;1.92;;;7.50;80.50;;;;;;5075812;28;20036;-73
2021/10/01 04:43:09;;;;;;;2.67;1.08;;;7.50;81.00;;;;;;5076839;28;20503;-72
2021/10/01 04:45:35;;;;;;;9.68;1.77;;;7.50;80.80;;;;;;5091914;28;20017;-73
2021/10/01 04:48:05;;;;;;;3.97;1.40;;;7.60;80.70;;;;;;5090865;28;20040;-72
2021/10/01 04:50:31;;;;;;;4.50;1.38;;;7.50;80.70;;;;;;5079831;28;20035;-72
2021/10/01 04:52:57;;;;;;;5.97;1.70;;;7.60;80.70;;;;;;5075794;28;20052;-72
2021/10/01 04:55:22;;;;;;;4.00;1.55;;;7.60;80.70;;;;;;5075946;28;20025;-73
2021/10/01 04:57:50;;;;;;;3.70;1.90;;;7.50;80.60;;;;;;5075467;28;20483;-72
2021/10/01 05:00:15;;;;;;;6.15;1.60;;;7.50;80.70;;;;;;5075176;28;20020;-73
2021/10/01 05:02:41;;;;;;;3.25;1.33;;;7.60;80.60;;;;;;5075367;28;20040;-73
2021/10/01 05:05:07;;;;;;;6.60;1.95;;;7.60;80.50;;;;;;5075508;28;20058;-73
2021/10/01 05:07:32;;;;;;;7.60;1.73;;;7.50;80.60;;;;;;5074741;28;20503;-72
2021/10/01 05:09:58;;;;;;;8.07;1.50;;;7.60;80.50;;;;;;5075466;28;20472;-73
2021/10/01 05:12:24;;;;;;;4.07;1.45;;;7.60;80.10;;;;;;5075333;28;20029;-73
2021/10/01 05:14:49;;;;;;;2.80;1.48;;;7.60;80.10;;;;;;5075229;28;20079;-72
2021/10/01 05:17:15;;;;;;;2.95;1.70;;;7.60;80.00;;;;;;5075260;28;20033;-73
2021/10/01 05:19:40;;;;;;;7.25;1.50;;;7.70;80.00;;;;;;5075137;28;20099;-72
2021/10/01 05:22:06;;;;;;;6.65;1.55;;;7.60;79.80;;;;;;5073697;28;20101;-71
2021/10/01 05:24:32;;;;;;;3.58;1.70;;;7.70;79.80;;;;;;5075468;28;20017;-72
2021/10/01 05:26:57;;;;;;;5.68;1.67;;;7.70;79.80;;;;;;5074959;28;20017;-72
2021/10/01 05:29:24;;;;;;;4.10;1.58;;;7.80;79.70;;;;;;5075900;28;20025;-73
2021/10/01 05:31:50;;;;;;;3.00;1.58;;;7.80;79.50;;;;;;5074249;28;20358;-74
2021/10/01 05:34:17;;;;;;;5.35;2.22;;;7.80;79.40;;;;;;5075333;28;20021;-71
2021/10/01 05:36:42;;;;;;;3.88;1.77;;;7.90;79.20;;;;;;5075908;28;20032;-72
2021/10/01 05:39:08;;;;;;;4.85;1.40;;;8.00;79.20;;;;;;5074745;28;20024;-72
2021/10/01 05:41:34;;;;;;;4.45;1.25;;;8.00;79.10;;;;;;5074587;28;20025;-72
2021/10/01 05:43:59;;;;;;;6.60;1.67;;;8.10;79.10;;;;;;5074904;28;20469;-71
2021/10/01 05:46:25;;;;;;;4.90;2.13;;;8.10;78.80;;;;;;5074797;28;20024;-73
2021/10/01 05:48:54;;;;;;;7.35;1.48;;;8.10;78.60;;;;;;5074610;28;20020;-73
2021/10/01 05:51:20;;;;;;;4.40;1.58;;;8.20;78.40;;;;;;5074573;28;20138;-73
2021/10/01 05:56:11;;;;;;;6.18;1.90;;;8.20;77.50;;;;;;5074227;28;20028;-71
2021/10/01 05:58:39;;;;;;;4.47;1.58;;;8.20;77.90;;;;;;5075329;28;20056;-72
2021/10/01 06:01:06;;;;;;;3.17;1.90;;;8.20;77.80;;;;;;5074561;28;20077;-72
2021/10/01 06:03:31;;;;;;;6.07;1.50;;;8.20;77.40;;;;;;5074338;28;20039;-72
2021/10/01 06:05:57;;;;;;;3.22;1.48;;;8.10;77.40;;;;;;5074302;28;20024;-72
2021/10/01 06:08:23;;;;;;;11.70;2.17;;;8.00;77.90;;;;;;5074565;28;20028;-72
2021/10/01 06:10:49;;;;;;;4.55;2.10;;;7.90;78.30;;;;;;5073120;28;20051;-72
2021/10/01 06:13:15;;;;;;;6.63;2.15;;;7.90;78.70;;;;;;5073981;28;20024;-72
2021/10/01 06:15:41;;;;;;;9.23;2.08;;;7.80;78.90;;;;;;5073902;28;20044;-72
2021/10/01 06:18:07;;;;;;;9.25;2.60;;;7.90;78.90;;;;;;5073576;28;20083;-72
2021/10/01 06:20:32;;;;;;;5.15;1.85;;;7.90;78.70;;;;;;5073847;28;20052;-73
2021/10/01 06:22:58;;;;;;;3.53;1.90;;;8.00;78.80;;;;;;5074580;28;20040;-73
2021/10/01 06:25:24;;;;;;;10.05;2.15;;;8.00;78.70;;;;;;5073826;28;20071;-72
2021/10/01 06:27:50;;;;;;;7.80;1.88;;;8.00;78.60;;;;;;5073673;28;20096;-73
2021/10/01 06:30:17;;;;;;;4.00;1.92;;;8.10;78.70;;;;;;5073573;28;20104;-73
2021/10/01 06:32:43;;;;;;;15.32;2.92;;;8.20;79.70;;;;;;5073275;28;20024;-77
2021/10/01 06:35:09;;;;;;;8.68;2.03;;;8.60;87.50;;;;;;5073874;28;20031;-79
2021/10/01 06:37:35;;;;;;;3.55;1.60;;;8.90;82.40;;;;;;5073162;28;20029;-79
2021/10/01 06:40:01;;;;;;;5.72;1.92;;;9.10;77.40;;;;;;5073420;28;20066;-78
2021/10/01 06:42:27;;;;;;;8.50;2.08;;;9.20;77.40;;;;;;5073358;28;20048;-78
2021/10/01 06:44:54;;;;;;;6.80;1.88;;;9.40;77.20;;;;;;5073391;28;20025;-78
2021/10/01 06:47:31;;;;;;;5.88;2.42;;;9.70;75.10;;;;;;5073512;28;20025;-80
2021/10/01 06:53:14;;;;;;;8.52;1.90;;;10.00;72.30;;;;;;5073563;28;20059;-79
2021/10/01 07:38:54;;;;;;;6.47;1.42;;;11.30;69.30;;;;;;5075846;28;20040;-73
2021/10/01 07:45:26;;;;;;;5.28;1.45;;;11.90;68.50;;;;;;5072522;28;20541;-72
2021/10/01 08:20:43;;;;;;;2.67;0.73;;;14.10;63.30;;;;;;5072367;28;20027;-74
2021/10/01 08:23:10;;;;;;;4.07;0.90;;;14.20;63.40;;;;;;5072182;28;20032;-74
2021/10/01 08:25:36;;;;;;;4.43;0.93;;;14.40;62.40;;;;;;5072244;28;20028;-73
2021/10/01 08:28:03;;;;;;;5.30;1.17;;;14.50;61.20;;;;;;5072332;28;20021;-73
2021/10/01 08:30:29;;;;;;;4.57;1.23;;;14.60;60.90;;;;;;5072192;28;20079;-74
2021/10/01 08:32:55;;;;;;;6.28;1.25;;;14.70;60.80;;;;;;5072258;28;20028;-74
2021/10/01 08:35:22;;;;;;;4.95;1.05;;;14.90;60.70;;;;;;5085747;28;20024;-75
2021/10/01 08:37:48;;;;;;;2.42;0.85;;;15.10;61.10;;;;;;5096797;28;20508;-75
2021/10/01 08:40:15;;;;;;;2.67;1.00;;;15.30;59.20;;;;;;5097467;28;20095;-74
2021/10/01 08:42:41;;;;;;;2.33;0.88;;;15.40;58.90;;;;;;5099079;28;20055;-72
2021/10/01 08:45:09;;;;;;;6.38;1.13;;;15.50;58.40;;;;;;5078706;28;20028;-73
2021/10/01 08:47:35;;;;;;;6.82;1.15;;;15.60;57.40;;;;;;5091904;28;20381;-73
2021/10/01 08:50:03;;;;;;;3.78;0.90;;;15.70;57.20;;;;;;5075612;28;20036;-73
2021/10/01 08:52:29;;;;;;;2.45;0.95;;;15.80;56.70;;;;;;5075540;28;20048;-73
2021/10/01 08:54:55;;;;;;;4.28;1.00;;;15.90;56.80;;;;;;5074937;28;20025;-73
2021/10/01 08:57:21;;;;;;;1.77;0.80;;;16.10;56.50;;;;;;5074889;28;20099;-74
2021/10/01 08:59:47;;;;;;;3.00;0.80;;;16.10;55.90;;;;;;5075241;28;20039;-73
2021/10/01 09:02:12;;;;;;;6.50;1.00;;;16.30;55.30;;;;;;5075166;28;20301;-73
2021/10/01 09:04:38;;;;;;;5.18;1.13;;;16.40;55.00;;;;;;5074906;28;20428;-74
2021/10/01 09:07:04;;;;;;;2.50;0.88;;;16.50;54.40;;;;;;5074703;28;20358;-73
2021/10/01 09:09:43;;;;;;;1.75;0.80;;;16.70;54.60;;;;;;5073393;28;20036;-73
2021/10/01 09:12:09;;;;;;;2.42;0.80;;;16.90;55.20;;;;;;5072658;28;20054;-73
2021/10/01 09:14:47;;;;;;;2.58;1.00;;;17.10;54.40;;;;;;5075126;28;20471;-73
2021/10/01 09:17:16;;;;;;;3.67;1.02;;;17.40;54.10;;;;;;5074863;28;20029;-74
2021/10/01 09:19:44;;;;;;;3.70;1.00;;;17.50;51.60;;;;;;5074777;28;20032;-73
2021/10/01 09:22:11;;;;;;;2.35;0.60;;;17.50;50.90;;;;;;5074936;28;20395;-73
2021/10/01 09:24:43;;;;;;;2.38;0.90;;;17.60;51.00;;;;;;5074963;28;20100;-74
2021/10/01 09:27:12;;;;;;;2.33;0.63;;;17.70;51.50;;;;;;5075114;28;20032;-73
2021/10/01 09:29:38;;;;;;;5.78;0.80;;;18.00;52.20;;;;;;5075080;28;20032;-73
2021/10/01 09:32:13;;;;;;;2.40;0.88;;;18.20;50.00;;;;;;5074991;28;20032;-74
2021/10/01 09:34:47;;;;;;;6.05;0.90;;;18.30;49.60;;;;;;5073471;28;20459;-73
2021/10/01 09:37:26;;;;;;;4.03;1.00;;;18.50;49.70;;;;;;5074788;28;20448;-74
2021/10/01 09:39:55;;;;;;;2.17;0.77;;;18.70;50.10;;;;;;5074899;28;20021;-74
2021/10/01 09:42:24;;;;;;;5.60;1.00;;;18.70;48.00;;;;;;5074595;28;20028;-73
2021/10/01 09:45:01;;;;;;;2.40;1.00;;;18.80;48.00;;;;;;5073975;28;20119;-73
2021/10/01 09:47:33;;;;;;;2.17;0.90;;;18.70;48.60;;;;;;5074504;28;20469;-73
2021/10/01 09:50:01;;;;;;;4.55;1.10;;;18.80;48.80;;;;;;5074470;28;20484;-72
2021/10/01 09:52:39;;;;;;;2.83;1.15;;;18.90;48.90;;;;;;5074050;28;20128;-73
2021/10/01 09:55:06;;;;;;;2.38;0.88;;;19.10;47.70;;;;;;5074382;28;20468;-72
2021/10/01 09:57:35;;;;;;;5.75;1.20;;;19.30;45.70;;;;;;5074316;28;20041;-74
2021/10/01 10:00:02;;;;;;;6.93;0.90;;;19.20;47.70;;;;;;5074167;28;20472;-73
2021/10/01 10:02:35;;;;;;;3.33;1.10;;;19.30;47.70;;;;;;5074260;28;20115;-74
2021/10/01 10:05:01;;;;;;;1.60;0.80;;;19.50;44.20;;;;;;5073611;28;20025;-73
2021/10/01 10:07:28;;;;;;;2.30;1.45;;;19.80;43.70;;;;;;5073727;28;20020;-74
2021/10/01 10:10:07;;;;;;;4.78;1.17;;;20.00;44.50;;;;;;5073545;28;20024;-74
2021/10/01 10:12:32;;;;;;;3.40;1.00;;;20.20;43.40;;;;;;5073813;28;20031;-74
2021/10/01 10:14:59;;;;;;;1.52;0.80;;;20.40;43.70;;;;;;5072474;28;20020;-73
2021/10/01 10:17:27;;;;;;;11.20;0.93;;;20.60;40.40;;;;;;5073538;28;20108;-74
2021/10/01 10:20:03;;;;;;;3.75;0.90;;;20.50;39.70;;;;;;5073460;28;20025;-74
2021/10/01 10:22:31;;;;;;;2.13;0.80;;;20.60;39.80;;;;;;5073573;28;20131;-73
2021/10/01 10:24:57;;;;;;;2.20;0.90;;;20.80;36.90;;;;;;5073869;28;20048;-75
2021/10/01 10:27:25;;;;;;;1.27;0.60;;;20.70;37.70;;;;;;5073002;28;20027;-75
2021/10/01 10:29:52;;;;;;;2.45;1.10;;;20.70;38.30;;;;;;5073013;28;20021;-75
2021/10/01 10:32:19;;;;;;;3.60;1.38;;;21.00;38.30;;;;;;5070279;28;20040;-74
2021/10/01 10:35:00;;;;;;;2.25;0.90;;;21.10;38.00;;;;;;5072816;28;20020;-75
2021/10/01 10:37:53;;;;;;;3.83;0.90;;;21.20;38.30;;;;;;5071043;28;20036;-75
2021/10/01 10:40:20;;;;;;;1.88;0.90;;;21.40;39.20;;;;;;5068775;28;20605;-75
2021/10/01 10:42:51;;;;;;;2.60;1.00;;;21.70;38.00;;;;;;5072841;28;20413;-73
2021/10/01 10:45:22;;;;;;;2.03;0.90;;;21.90;36.80;;;;;;5072995;28;20362;-74
2021/10/01 10:47:49;;;;;;;1.65;0.90;;;21.90;35.80;;;;;;5072696;28;20013;-73
2021/10/01 10:50:35;;;;;;;1.83;1.00;;;21.90;35.70;;;;;;5072542;28;20021;-74
2021/10/01 10:53:07;;;;;;;1.33;0.95;;;22.20;36.10;;;;;;5069426;28;20044;-76
2021/10/01 10:55:35;;;;;;;1.88;1.02;;;22.20;36.10;;;;;;5070715;28;20020;-73
2021/10/01 11:01:19;;;;;;;2.05;1.05;;;22.60;34.90;;;;;;5073184;28;20024;-75
2021/10/01 11:03:45;;;;;;;2.63;1.20;;;22.60;34.30;;;;;;5071236;28;20036;-75
2021/10/01 11:06:13;;;;;;;2.85;1.10;;;22.80;34.20;;;;;;5072844;28;20526;-75
2021/10/01 11:08:44;;;;;;;2.78;1.05;;;22.50;34.80;;;;;;5072806;28;20059;-75
2021/10/01 11:11:35;;;;;;;4.82;1.55;;;22.20;34.70;;;;;;5072688;28;20107;-75
2021/10/01 11:14:15;;;;;;;2.05;1.65;;;22.80;35.20;;;;;;5072604;28;20065;-75
2021/10/01 11:16:43;;;;;;;4.55;1.50;;;23.30;32.30;;;;;;5072763;28;20033;-75
2021/10/01 11:19:10;;;;;;;1.77;1.48;;;23.60;31.50;;;;;;5072878;28;20020;-75
2021/10/01 11:21:42;;;;;;;2.05;1.25;;;23.90;31.60;;;;;;5072434;28;20063;-75
2021/10/01 11:24:21;;;;;;;2.22;1.35;;;24.30;30.80;;;;;;5072882;28;20028;-76
2021/10/01 11:26:58;;;;;;;5.10;2.25;;;24.40;29.80;;;;;;5072898;28;20078;-76
2021/10/01 11:29:30;;;;;;;2.00;1.67;;;24.20;30.40;;;;;;5072549;28;20031;-74
2021/10/01 11:32:02;;;;;;;2.55;2.05;;;24.20;30.70;;;;;;5072866;28;20140;-75
2021/10/01 11:34:39;;;;;;;2.90;2.03;;;24.10;31.30;;;;;;5073039;28;20016;-75
2021/10/01 11:37:33;;;;;;;3.03;2.00;;;24.50;30.90;;;;;;5074468;28;20040;-74
2021/10/01 11:40:04;;;;;;;3.08;2.25;;;25.00;30.50;;;;;;5076040;28;20021;-75
2021/10/01 11:42:41;;;;;;;5.43;2.40;;;25.40;30.10;;;;;;5072630;28;20070;-75
2021/10/01 11:45:17;;;;;;;3.63;2.40;;;25.30;30.20;;;;;;5072616;28;20024;-74
2021/10/01 11:48:02;;;;;;;2.75;2.13;;;24.60;31.80;;;;;;5072528;28;20020;-75
2021/10/01 11:50:37;;;;;;;2.83;2.53;;;24.60;31.60;;;;;;5072647;28;20048;-75
2021/10/01 11:53:05;;;;;;;2.58;2.22;;;24.40;32.40;;;;;;5072154;28;20044;-75
2021/10/01 11:55:34;;;;;;;6.95;2.70;;;24.30;32.90;;;;;;5072526;28;20052;-75
2021/10/01 11:58:02;;;;;;;4.72;2.90;;;24.30;33.10;;;;;;5072642;28;20037;-75
2021/10/01 12:00:28;;;;;;;3.47;2.38;;;23.90;33.80;;;;;;5072366;28;20021;-75
2021/10/01 12:02:54;;;;;;;6.25;2.78;;;24.30;34.20;;;;;;5071011;28;20477;-75
2021/10/01 12:05:28;;;;;;;5.25;2.35;;;24.60;33.40;;;;;;5072397;28;20040;-75
2021/10/01 12:07:58;;;;;;;4.47;2.97;;;24.90;32.90;;;;;;5072580;28;20033;-74
2021/10/01 12:10:26;;;;;;;4.93;3.45;;;24.80;33.40;;;;;;5076203;28;20024;-75
2021/10/01 12:13:05;;;;;;;5.13;3.20;;;24.90;33.60;;;;;;5076225;28;20052;-75
2021/10/01 12:15:46;;;;;;;3.63;3.03;;;24.90;33.20;;;;;;5076392;28;20564;-75
2021/10/01 12:18:31;;;;;;;4.13;2.90;;;24.80;33.10;;;;;;5076331;28;20056;-74
2021/10/01 12:21:00;;;;;;;3.95;2.80;;;24.80;33.50;;;;;;5076542;28;20028;-75
2021/10/01 12:23:35;;;;;;;5.88;3.03;;;24.50;33.70;;;;;;5076435;28;20028;-75
2021/10/01 12:26:17;;;;;;;;;;;24.30;34.00;;;;;;5076698;28;20468;-74
2021/10/01 12:29:03;;;;;;;13.52;3.25;;;23.90;34.10;;;;;;5076142;28;19920;-74
2021/10/01 12:31:30;;;;;;;;;;;23.30;36.60;;;;;;5076658;28;20024;-75
2021/10/01 12:33:58;;;;;;;4.00;2.40;;;23.50;36.50;;;;;;5076156;28;19905;-74
2021/10/01 12:36:24;;;;;;;3.33;3.00;;;24.20;35.60;;;;;;5075722;28;20017;-75
2021/10/01 12:38:53;;;;;;;5.75;3.17;;;24.50;35.40;;;;;;5075779;28;20181;-75
2021/10/01 12:41:19;;;;;;;3.78;3.03;;;24.80;34.20;;;;;;5075392;28;20035;-74
2021/10/01 12:43:54;;;;;;;5.68;2.85;;;25.00;34.10;;;;;;5075077;28;20024;-75
2021/10/01 12:46:36;;;;;;;4.88;2.83;;;24.80;33.40;;;;;;5074940;28;20099;-75
2021/10/01 12:49:19;;;;;;;3.08;2.60;;;25.00;33.60;;;;;;5075721;28;20029;-75
2021/10/01 12:52:03;;;;;;;5.93;3.08;;;24.90;33.60;;;;;;5075350;28;20537;-74
2021/10/01 12:54:33;;;;;;;3.50;2.90;;;24.70;33.70;;;;;;5075403;28;20028;-74
2021/10/01 12:57:24;;;;;;;4.18;2.80;;;24.80;34.30;;;;;;5074238;28;20063;-74
2021/10/01 12:59:58;;;;;;;3.22;2.92;;;24.60;34.00;;;;;;5075259;28;20132;-74
2021/10/01 13:02:45;;;;;;;3.22;2.63;;;24.60;34.50;;;;;;5074133;28;20052;-74
2021/10/01 13:05:18;;;;;;;2.95;2.58;;;24.90;33.80;;;;;;5075469;28;20029;-73
2021/10/01 13:08:08;;;;;;;4.22;2.63;;;24.90;33.60;;;;;;5075360;28;20064;-75
2021/10/01 13:10:42;;;;;;;4.55;2.88;;;24.60;33.90;;;;;;5075393;28;20028;-73
2021/10/01 13:13:12;;;;;;;3.25;2.92;;;24.40;34.60;;;;;;5075368;28;20029;-73
2021/10/01 13:15:51;;;;;;;3.58;2.60;;;24.40;34.90;;;;;;5075019;28;20539;-74
2021/10/01 13:18:35;;;;;;;5.00;2.42;;;24.60;34.20;;;;;;5074954;28;20090;-74
2021/10/01 13:21:21;;;;;;;4.07;2.72;;;24.80;34.10;;;;;;5074916;28;20017;-73
2021/10/01 13:23:53;;;;;;;7.55;2.72;;;24.80;33.60;;;;;;5074999;28;20032;-74
2021/10/01 13:26:22;;;;;;;5.43;2.85;;;24.80;33.50;;;;;;5074962;28;20103;-73
2021/10/01 13:28:54;;;;;;;3.38;2.40;;;24.60;33.70;;;;;;5075127;28;20028;-74
2021/10/01 13:31:21;;;;;;;2.88;2.63;;;24.50;33.90;;;;;;5075077;28;20028;-73
2021/10/01 13:33:50;;;;;;;3.22;2.80;;;24.50;34.10;;;;;;5074521;28;20112;-73
2021/10/01 13:36:16;;;;;;;5.85;3.08;;;24.40;33.70;;;;;;5073300;28;20060;-74
2021/10/01 13:38:43;;;;;;;7.88;3.15;;;24.70;32.80;;;;;;5077879;28;20083;-73
2021/10/01 13:41:12;;;;;;;5.50;3.35;;;25.00;32.40;;;;;;5075334;28;20354;-74
2021/10/01 13:43:39;;;;;;;3.47;2.85;;;25.10;32.00;;;;;;5074840;28;20024;-74
2021/10/01 13:46:06;;;;;;;5.32;2.97;;;25.30;31.90;;;;;;5074475;28;20017;-74
2021/10/01 13:48:33;;;;;;;4.35;3.13;;;25.00;31.60;;;;;;5074653;28;20028;-73
2021/10/01 13:50:59;;;;;;;3.92;2.95;;;24.40;31.40;;;;;;5074392;28;20081;-73
2021/10/01 13:53:25;;;;;;;4.97;3.00;;;24.40;32.20;;;;;;5074312;28;20106;-75
2021/10/01 13:55:51;;;;;;;4.97;3.40;;;24.30;32.80;;;;;;5074426;28;20487;-74
2021/10/01 13:58:17;;;;;;;3.42;3.10;;;24.40;32.90;;;;;;5074310;28;20465;-74
2021/10/01 14:00:44;;;;;;;5.10;3.63;;;24.40;32.70;;;;;;5072819;28;20029;-74
2021/10/01 14:03:09;;;;;;;5.40;3.70;;;24.30;33.40;;;;;;5074104;28;20481;-74
2021/10/01 14:05:35;;;;;;;4.60;3.50;;;24.40;33.30;;;;;;5074180;28;20021;-74
2021/10/01 14:08:01;;;;;;;4.45;3.38;;;24.30;33.30;;;;;;5074280;28;20055;-73
2021/10/01 14:10:32;;;;;;;4.22;3.35;;;24.60;33.30;;;;;;5086480;28;20385;-73
2021/10/01 14:12:59;;;;;;;5.45;3.33;;;24.90;33.50;;;;;;5085301;28;20024;-74
2021/10/01 14:15:27;;;;;;;5.78;2.88;;;25.10;32.10;;;;;;5081098;28;20047;-74
2021/10/01 14:17:53;;;;;;;8.48;3.83;;;25.50;31.10;;;;;;5081550;28;20036;-73
2021/10/01 14:20:21;;;;;;;8.48;3.35;;;25.60;30.60;;;;;;5074064;28;20161;-74
2021/10/01 14:22:49;;;;;;;3.83;3.10;;;25.70;30.40;;;;;;5080037;28;20033;-73
2021/10/01 14:25:16;;;;;;;5.43;3.20;;;25.80;30.00;;;;;;5073866;28;20066;-73
2021/10/01 14:27:42;;;;;;;3.95;3.00;;;25.80;30.50;;;;;;5073685;28;20480;-73
2021/10/01 14:30:11;;;;;;;3.88;3.17;;;26.00;30.50;;;;;;5073242;28;20028;-73
2021/10/01 14:32:37;;;;;;;4.10;3.25;;;26.20;29.10;;;;;;5072870;28;20103;-72
2021/10/01 14:35:04;;;;;;;4.63;3.10;;;26.20;28.60;;;;;;5073589;28;20067;-73